Time;durP1;ratioP1;P1;durP2;ratioP2;P2;SDS_P1;SDS_P2;PMS_P1;PMS_P2;Temp;Humidity;BMP_temperature;BMP_pressure;BME280_temperature;BME280_humidity;BME280_pressure;Samples;Min_cycle;Max_cycle;Signal;HPM_P1;HPM_P2
2021/03/10 00:02:15;;;;;;;1999.90;999.90;;;5.60;99.90;;;;;;4862966;29;20164;-80
2021/03/10 00:04:40;;;;;;;1999.90;999.90;;;5.50;99.90;;;;;;4863274;29;20213;-79
2021/03/10 00:07:06;;;;;;;1999.90;999.90;;;5.50;99.90;;;;;;4863489;29;20229;-80
2021/03/10 00:09:32;;;;;;;1999.90;999.90;;;5.50;99.90;;;;;;4863343;29;20651;-80
2021/03/10 00:11:57;;;;;;;1999.90;999.90;;;5.60;99.90;;;;;;4862808;29;20191;-80
2021/03/10 00:14:23;;;;;;;1999.90;999.90;;;5.50;99.90;;;;;;4866283;29;20202;-80
2021/03/10 00:16:49;;;;;;;1999.90;999.90;;;5.50;99.90;;;;;;4866802;29;20403;-80
2021/03/10 00:19:15;;;;;;;1999.90;999.90;;;5.50;99.90;;;;;;4867370;29;20170;-80
2021/03/10 00:21:40;;;;;;;1999.90;999.90;;;5.50;99.90;;;;;;4866801;29;20242;-80
2021/03/10 00:24:06;;;;;;;1999.90;999.90;;;5.50;99.90;;;;;;4866761;29;20943;-80
2021/03/10 00:26:32;;;;;;;1999.90;999.90;;;5.50;99.90;;;;;;4866771;29;20296;-80
2021/03/10 00:28:58;;;;;;;1999.90;999.90;;;5.50;99.90;;;;;;4866398;29;20171;-79
2021/03/10 00:31:23;;;;;;;1999.90;999.90;;;5.50;99.90;;;;;;4866553;29;20178;-80
2021/03/10 00:33:49;;;;;;;1999.90;999.90;;;5.50;99.90;;;;;;4866194;29;20258;-80
2021/03/10 00:36:15;;;;;;;1999.90;999.90;;;5.50;99.90;;;;;;4866614;29;20163;-80
2021/03/10 00:38:40;;;;;;;1999.90;999.90;;;5.50;99.90;;;;;;4866251;29;20639;-80
2021/03/10 00:41:06;;;;;;;1999.90;999.90;;;5.50;99.90;;;;;;4866481;29;20652;-80
2021/03/10 00:43:31;;;;;;;1999.90;999.90;;;5.40;99.90;;;;;;4866981;29;20674;-80
2021/03/10 00:45:57;;;;;;;1999.90;999.90;;;5.40;99.90;;;;;;4866459;29;20628;-79
2021/03/10 00:48:23;;;;;;;1999.90;999.90;;;5.40;99.90;;;;;;4866194;29;20175;-80
2021/03/10 00:50:48;;;;;;;1999.90;999.90;;;5.40;99.90;;;;;;4866052;29;20175;-80
2021/03/10 00:53:14;;;;;;;1999.90;999.90;;;5.40;99.90;;;;;;4865578;29;20202;-80
2021/03/10 00:55:39;;;;;;;1999.90;999.90;;;5.50;99.90;;;;;;4866109;29;20232;-80
2021/03/10 00:58:05;;;;;;;1999.90;999.90;;;5.40;99.90;;;;;;4865105;29;20182;-80
2021/03/10 01:00:31;;;;;;;1999.90;999.90;;;5.50;99.90;;;;;;4865966;29;20178;-80
2021/03/10 01:02:56;;;;;;;1999.90;999.90;;;5.40;99.90;;;;;;4935552;23;20219;-80
2021/03/10 01:05:22;;;;;;;1999.90;999.90;;;5.40;99.90;;;;;;4866128;29;20512;-80
2021/03/10 01:07:48;;;;;;;1999.90;999.90;;;5.40;99.90;;;;;;4865499;29;20172;-80
2021/03/10 01:10:14;;;;;;;1999.90;999.90;;;5.40;99.90;;;;;;4865311;29;20174;-79
2021/03/10 01:12:40;;;;;;;1999.90;999.90;;;5.30;99.90;;;;;;4865294;29;20191;-79
2021/03/10 01:15:10;;;;;;;1999.90;999.90;;;5.30;99.90;;;;;;4865479;29;20228;-79
2021/03/10 01:17:39;;;;;;;1999.90;999.90;;;5.20;99.90;;;;;;4865296;29;20927;-80
2021/03/10 01:20:12;;;;;;;1999.90;999.90;;;5.20;99.90;;;;;;4864391;29;20181;-80
2021/03/10 01:22:38;;;;;;;1999.90;999.90;;;5.10;99.90;;;;;;4865589;29;20182;-79
2021/03/10 01:25:05;;;;;;;1999.90;999.90;;;5.00;99.90;;;;;;4864873;29;20179;-80
2021/03/10 01:27:31;;;;;;;1999.90;999.90;;;4.90;99.90;;;;;;4864880;29;20182;-79
2021/03/10 01:29:56;;;;;;;1999.90;999.90;;;4.90;99.90;;;;;;4864886;29;20179;-79
2021/03/10 01:32:22;;;;;;;1999.90;999.90;;;4.80;99.90;;;;;;4864484;29;20194;-79
2021/03/10 01:34:47;;;;;;;1999.90;999.90;;;4.70;99.90;;;;;;4864897;29;20188;-79
2021/03/10 01:37:14;;;;;;;1999.90;999.90;;;4.60;99.90;;;;;;4864592;29;20220;-79
2021/03/10 01:39:40;;;;;;;1999.90;999.90;;;4.50;99.90;;;;;;4863485;29;20171;-79
2021/03/10 01:42:06;;;;;;;1999.90;999.90;;;4.50;99.90;;;;;;4863739;29;20278;-79
2021/03/10 01:44:32;;;;;;;1999.90;999.90;;;4.40;99.90;;;;;;4929490;23;20282;-80
2021/03/10 01:47:02;;;;;;;1999.90;999.90;;;4.40;99.90;;;;;;4884243;29;20174;-80
2021/03/10 01:49:31;;;;;;;1999.90;999.90;;;4.40;99.90;;;;;;4885626;29;20170;-80
2021/03/10 01:51:57;;;;;;;1999.90;999.90;;;4.30;99.90;;;;;;4884959;29;20598;-80
2021/03/10 01:54:22;;;;;;;1999.90;999.90;;;4.30;99.90;;;;;;4870777;29;20220;-80
2021/03/10 01:56:48;;;;;;;1999.90;999.90;;;4.20;99.90;;;;;;4865739;29;20167;-80
2021/03/10 01:59:14;;;;;;;1999.90;999.90;;;4.20;99.90;;;;;;4866642;29;20159;-80
2021/03/10 02:01:42;;;;;;;1999.90;999.90;;;4.20;99.90;;;;;;4865252;29;20182;-80
2021/03/10 02:04:10;;;;;;;1999.90;999.90;;;4.20;99.90;;;;;;4866387;29;20266;-80
2021/03/10 02:07:06;;;;;;;1999.90;999.90;;;4.20;99.90;;;;;;4864896;29;20175;-80
2021/03/10 02:10:00;;;;;;;1999.90;999.90;;;4.20;99.90;;;;;;4865620;29;20167;-80
2021/03/10 02:12:53;;;;;;;1999.90;999.90;;;4.10;99.90;;;;;;4866373;29;20194;-80
2021/03/10 02:15:27;;;;;;;1999.90;999.90;;;4.00;99.90;;;;;;4866624;29;20152;-80
2021/03/10 02:17:59;;;;;;;1999.90;999.90;;;4.00;99.90;;;;;;4866546;29;20166;-80
2021/03/10 02:20:32;;;;;;;1999.90;999.90;;;3.90;99.90;;;;;;4867693;29;20180;-80
2021/03/10 02:23:11;;;;;;;1999.90;999.90;;;3.90;99.90;;;;;;4866577;29;20195;-80
2021/03/10 02:26:07;;;;;;;1999.90;999.90;;;3.90;99.90;;;;;;4866369;29;20166;-80
2021/03/10 02:28:34;;;;;;;1999.90;999.90;;;4.00;99.90;;;;;;4838949;29;20194;-80
2021/03/10 02:31:01;;;;;;;1999.90;999.90;;;4.10;99.90;;;;;;4866171;29;20182;-80
2021/03/10 02:33:29;;;;;;;1999.90;999.90;;;4.10;99.90;;;;;;4867838;29;20298;-80
2021/03/10 02:36:02;;;;;;;1999.90;999.90;;;4.10;99.90;;;;;;4866788;29;20198;-80
2021/03/10 02:38:28;;;;;;;1999.90;999.90;;;4.10;99.90;;;;;;4868232;29;20195;-80
2021/03/10 02:40:55;;;;;;;1999.90;999.90;;;4.10;99.90;;;;;;4868234;29;20164;-80
2021/03/10 02:43:23;;;;;;;1999.90;999.90;;;4.10;99.90;;;;;;4867446;29;20203;-80
2021/03/10 02:45:54;;;;;;;1999.90;999.90;;;4.20;99.90;;;;;;4867789;29;20183;-80
2021/03/10 02:48:21;;;;;;;1999.90;999.90;;;4.20;99.90;;;;;;4868462;29;20640;-80
2021/03/10 02:50:48;;;;;;;1999.90;999.90;;;4.20;99.90;;;;;;4868624;29;20183;-80
2021/03/10 02:53:15;;;;;;;1999.90;999.90;;;4.20;99.90;;;;;;4867832;29;20202;-80
2021/03/10 02:55:40;;;;;;;1999.90;999.90;;;4.20;99.90;;;;;;4867296;29;20167;-80
2021/03/10 02:58:12;;;;;;;1999.90;999.90;;;4.30;99.90;;;;;;4866883;29;20255;-79
2021/03/10 03:00:40;;;;;;;1999.90;999.90;;;4.30;99.90;;;;;;4867493;29;20159;-79
2021/03/10 03:03:06;;;;;;;1999.90;999.90;;;4.30;99.90;;;;;;4866212;29;20206;-79
2021/03/10 03:05:33;;;;;;;1999.90;999.90;;;4.30;99.90;;;;;;4866453;29;20631;-79
2021/03/10 03:08:01;;;;;;;1999.90;999.90;;;4.30;99.90;;;;;;4866487;29;20174;-79
2021/03/10 03:10:32;;;;;;;1999.90;999.90;;;4.40;99.90;;;;;;4865387;29;20199;-79
2021/03/10 03:13:00;;;;;;;1999.90;999.90;;;4.40;99.90;;;;;;4866274;29;20236;-80
2021/03/10 03:15:26;;;;;;;1999.90;999.90;;;4.40;99.90;;;;;;4865954;29;20175;-78
2021/03/10 03:17:54;;;;;;;1999.90;999.90;;;4.40;99.90;;;;;;4864821;29;20654;-79
2021/03/10 03:20:21;;;;;;;1999.90;999.90;;;4.40;99.90;;;;;;4865876;29;20415;-79
2021/03/10 03:22:53;;;;;;;1999.90;999.90;;;4.40;99.90;;;;;;4866084;29;20183;-79
2021/03/10 03:25:28;;;;;;;1999.90;999.90;;;4.40;99.90;;;;;;4866824;29;20183;-79
2021/03/10 03:27:59;;;;;;;1999.90;999.90;;;4.40;99.90;;;;;;4865977;29;20159;-79
2021/03/10 03:30:28;;;;;;;1999.90;999.90;;;4.40;99.90;;;;;;4866353;29;20204;-79
2021/03/10 03:32:55;;;;;;;1999.90;999.90;;;4.40;99.90;;;;;;4866300;29;20206;-79
2021/03/10 03:35:22;;;;;;;1999.90;999.90;;;4.40;99.90;;;;;;4865753;29;20201;-79
2021/03/10 03:37:50;;;;;;;1999.90;999.90;;;4.40;99.90;;;;;;4864948;29;20171;-79
2021/03/10 03:40:18;;;;;;;1999.90;999.90;;;4.40;99.90;;;;;;4866507;29;20175;-79
2021/03/10 03:42:45;;;;;;;1999.90;999.90;;;4.40;99.90;;;;;;4865654;29;20649;-79
2021/03/10 03:45:14;;;;;;;1999.90;999.90;;;4.40;99.90;;;;;;4864432;29;20266;-79
2021/03/10 03:47:40;;;;;;;1999.90;999.90;;;4.40;99.90;;;;;;4865439;29;20255;-80
2021/03/10 03:50:08;;;;;;;1999.90;999.90;;;4.40;99.90;;;;;;4863628;29;20276;-80
2021/03/10 03:52:34;;;;;;;1999.90;999.90;;;4.40;99.90;;;;;;4865838;29;20191;-79
2021/03/10 03:54:59;;;;;;;1999.90;999.90;;;4.40;99.90;;;;;;4864087;29;20187;-79
2021/03/10 03:57:25;;;;;;;1999.90;999.90;;;4.30;99.90;;;;;;4865310;29;20179;-79
2021/03/10 03:59:51;;;;;;;1999.90;999.90;;;4.30;99.90;;;;;;4865974;29;20178;-79
2021/03/10 04:02:16;;;;;;;1999.90;999.90;;;4.20;99.90;;;;;;4866275;29;20258;-78
2021/03/10 04:04:42;;;;;;;1999.90;999.90;;;4.20;99.90;;;;;;4865689;29;20198;-79
2021/03/10 04:07:08;;;;;;;1999.90;999.90;;;4.20;99.90;;;;;;4865362;29;20175;-79
2021/03/10 04:09:33;;;;;;;1999.90;999.90;;;4.20;99.90;;;;;;4865710;29;20231;-79
2021/03/10 04:12:02;;;;;;;1999.90;999.90;;;4.20;99.90;;;;;;4865736;29;20203;-79
2021/03/10 04:14:27;;;;;;;1999.90;999.90;;;4.20;99.90;;;;;;4864127;29;20227;-79
2021/03/10 04:16:53;;;;;;;1999.90;999.90;;;4.20;99.90;;;;;;4865950;29;20168;-79
2021/03/10 04:19:19;;;;;;;1999.90;999.90;;;4.20;99.90;;;;;;4865644;29;20175;-80
2021/03/10 04:21:44;;;;;;;1999.90;999.90;;;4.20;99.90;;;;;;4864760;29;20171;-79
2021/03/10 04:24:10;;;;;;;1999.90;999.90;;;4.20;99.90;;;;;;4864262;29;20229;-79
2021/03/10 04:26:36;;;;;;;1999.90;999.90;;;4.10;99.90;;;;;;4866022;29;20592;-79
2021/03/10 04:29:01;;;;;;;1999.90;999.90;;;4.10;99.90;;;;;;4864083;29;20670;-79
2021/03/10 04:31:27;;;;;;;1999.90;999.90;;;4.10;99.90;;;;;;4864108;29;20195;-79
2021/03/10 04:33:52;;;;;;;1999.90;999.90;;;4.10;99.90;;;;;;4865396;29;20675;-79
2021/03/10 04:36:18;;;;;;;1999.90;999.90;;;4.10;99.90;;;;;;4864671;29;20659;-80
2021/03/10 04:38:44;;;;;;;1999.90;999.90;;;4.00;99.90;;;;;;4866165;29;20247;-79
2021/03/10 04:41:09;;;;;;;1999.90;999.90;;;4.10;99.90;;;;;;4865471;29;20539;-79
2021/03/10 04:43:35;;;;;;;1999.90;999.90;;;4.10;99.90;;;;;;4866264;29;20221;-80
2021/03/10 04:46:01;;;;;;;1999.90;999.90;;;4.10;99.90;;;;;;4865745;29;20602;-79
2021/03/10 04:48:27;;;;;;;1999.90;999.90;;;4.10;99.90;;;;;;4865996;29;20183;-79
2021/03/10 04:50:52;;;;;;;1999.90;999.90;;;4.20;99.90;;;;;;4864401;29;20171;-79
2021/03/10 04:53:18;;;;;;;1999.90;999.90;;;4.20;99.90;;;;;;4865566;29;20239;-79
2021/03/10 04:55:43;;;;;;;1999.90;999.90;;;4.20;99.90;;;;;;4865416;29;20195;-79
2021/03/10 04:58:09;;;;;;;1999.90;999.90;;;4.30;99.90;;;;;;4865452;29;20178;-79
2021/03/10 05:00:35;;;;;;;1999.90;999.90;;;4.30;99.90;;;;;;4867100;29;20212;-78
2021/03/10 05:03:01;;;;;;;1999.90;999.90;;;4.30;99.90;;;;;;4868564;29;20281;-79
2021/03/10 05:05:26;;;;;;;1999.90;999.90;;;4.30;99.90;;;;;;4868493;29;20179;-80
2021/03/10 05:07:52;;;;;;;1999.90;999.90;;;4.30;99.90;;;;;;4867371;29;20262;-79
2021/03/10 05:10:18;;;;;;;1999.90;999.90;;;4.30;99.90;;;;;;4867468;29;20179;-79
2021/03/10 05:12:44;;;;;;;1999.90;999.90;;;4.40;99.90;;;;;;4868826;29;20555;-79
2021/03/10 05:15:09;;;;;;;1999.90;999.90;;;4.40;99.90;;;;;;4868997;29;20284;-79
2021/03/10 05:17:36;;;;;;;1999.90;999.90;;;4.40;99.90;;;;;;4868106;29;20582;-79
2021/03/10 05:20:04;;;;;;;1999.90;999.90;;;4.50;99.90;;;;;;4868526;29;20416;-79
2021/03/10 05:22:30;;;;;;;1999.90;999.90;;;4.50;99.90;;;;;;4868203;29;20326;-79
2021/03/10 05:24:56;;;;;;;1999.90;999.90;;;4.50;99.90;;;;;;4867289;29;20232;-78
2021/03/10 05:27:21;;;;;;;1999.90;999.90;;;4.50;99.90;;;;;;4868522;29;20250;-79
2021/03/10 05:29:47;;;;;;;1999.90;999.90;;;4.50;99.90;;;;;;4867087;29;20198;-79
2021/03/10 05:32:13;;;;;;;1999.90;999.90;;;4.50;99.90;;;;;;4867147;29;20460;-79
2021/03/10 05:34:41;;;;;;;1999.90;999.90;;;4.50;99.90;;;;;;4867267;29;20195;-79
2021/03/10 05:37:07;;;;;;;1999.90;999.90;;;4.50;99.90;;;;;;4868214;29;20167;-78
2021/03/10 05:39:33;;;;;;;1999.90;999.90;;;4.60;99.90;;;;;;4867821;29;20250;-79
2021/03/10 05:41:59;;;;;;;1999.90;999.90;;;4.60;99.90;;;;;;4868138;29;20200;-79
2021/03/10 05:44:25;;;;;;;1999.90;999.90;;;4.60;99.90;;;;;;4865809;29;20455;-79
2021/03/10 05:46:54;;;;;;;1999.90;999.90;;;4.70;99.90;;;;;;4867904;29;20190;-79
2021/03/10 05:49:21;;;;;;;1999.90;999.90;;;4.70;99.90;;;;;;4867333;29;20778;-79
2021/03/10 05:51:50;;;;;;;1999.90;999.90;;;4.70;99.90;;;;;;4867896;29;20202;-79
2021/03/10 05:54:18;;;;;;;1999.90;999.90;;;4.70;99.90;;;;;;4867808;29;20190;-80
2021/03/10 05:56:45;;;;;;;1999.90;999.90;;;4.70;99.90;;;;;;4866157;29;20209;-79
2021/03/10 05:59:13;;;;;;;1999.90;999.90;;;4.70;99.90;;;;;;4867877;29;20171;-79
2021/03/10 06:01:39;;;;;;;1999.90;999.90;;;4.80;99.90;;;;;;4867118;29;20243;-79
2021/03/10 06:04:06;;;;;;;1999.90;999.90;;;4.70;99.90;;;;;;4867223;29;20183;-79
2021/03/10 06:06:41;;;;;;;1999.90;999.90;;;4.80;99.90;;;;;;4867127;29;20499;-79
2021/03/10 06:09:11;;;;;;;1999.90;999.90;;;4.70;99.90;;;;;;4865638;29;20175;-79
2021/03/10 06:11:37;;;;;;;1999.90;999.90;;;4.80;99.90;;;;;;4866304;29;20246;-79
2021/03/10 06:14:14;;;;;;;1999.90;999.90;;;4.70;99.90;;;;;;4867378;29;20207;-79
2021/03/10 06:16:40;;;;;;;1999.90;999.90;;;4.80;99.90;;;;;;4867539;29;20163;-79
2021/03/10 06:19:08;;;;;;;1999.90;999.90;;;4.80;99.90;;;;;;4870229;29;20167;-80
2021/03/10 06:21:34;;;;;;;1999.90;999.90;;;4.80;99.90;;;;;;4870280;29;20299;-80
2021/03/10 06:24:09;;;;;;;1999.90;999.90;;;4.80;99.90;;;;;;4869241;29;20219;-80
2021/03/10 06:26:36;;;;;;;1999.90;999.90;;;4.80;99.90;;;;;;4866775;29;20238;-80
2021/03/10 06:29:12;;;;;;;1999.90;999.90;;;4.80;99.90;;;;;;4868009;29;20523;-80
2021/03/10 06:31:38;;;;;;;1999.90;999.90;;;4.80;99.90;;;;;;4867954;29;20155;-80
2021/03/10 06:34:07;;;;;;;1999.90;999.90;;;4.80;99.90;;;;;;4867869;29;20193;-80
2021/03/10 06:36:35;;;;;;;1999.90;999.90;;;4.80;99.90;;;;;;4869174;29;20216;-80
2021/03/10 06:39:03;;;;;;;1999.90;999.90;;;4.80;99.90;;;;;;4869447;29;20171;-80
2021/03/10 06:41:35;;;;;;;1999.90;999.90;;;4.80;99.90;;;;;;4869972;29;20164;-80
2021/03/10 06:44:13;;;;;;;1999.90;999.90;;;4.80;99.90;;;;;;4869323;29;20191;-80
2021/03/10 06:46:52;;;;;;;1999.90;999.90;;;4.90;99.90;;;;;;4870548;29;20156;-80
2021/03/10 06:49:22;;;;;;;1999.90;999.90;;;4.90;99.90;;;;;;4870132;29;20187;-80
2021/03/10 06:51:56;;;;;;;1999.90;999.90;;;4.90;99.90;;;;;;4868820;29;20199;-80
2021/03/10 06:54:23;;;;;;;1999.90;999.90;;;4.90;99.90;;;;;;4869839;29;20244;-80
2021/03/10 06:57:06;;;;;;;1999.90;999.90;;;4.90;99.90;;;;;;4870351;29;20175;-80
2021/03/10 06:59:52;;;;;;;1999.90;999.90;;;5.00;99.90;;;;;;4870489;29;20203;-80
2021/03/10 07:02:26;;;;;;;1999.90;999.90;;;5.00;99.90;;;;;;4869499;29;20159;-80
2021/03/10 07:04:52;;;;;;;1999.90;999.90;;;4.90;99.90;;;;;;4869121;29;20199;-80
2021/03/10 07:07:18;;;;;;;1999.90;999.90;;;5.00;99.90;;;;;;4870014;29;20204;-80
2021/03/10 07:09:45;;;;;;;1999.90;999.90;;;5.10;99.90;;;;;;4866261;29;20172;-80
2021/03/10 07:12:18;;;;;;;1999.90;999.90;;;5.10;99.90;;;;;;4867972;29;20198;-80
2021/03/10 07:14:45;;;;;;;1999.90;999.90;;;5.20;99.90;;;;;;4866960;29;20705;-80
2021/03/10 07:17:13;;;;;;;1999.90;999.90;;;5.10;99.90;;;;;;4868845;29;20186;-80
2021/03/10 07:19:40;;;;;;;1999.90;999.90;;;5.20;99.90;;;;;;4870078;29;20171;-80
2021/03/10 07:22:16;;;;;;;1999.90;999.90;;;5.20;99.90;;;;;;4866207;29;20175;-80
2021/03/10 07:25:01;;;;;;;1999.90;999.90;;;5.20;99.90;;;;;;4864905;29;20202;-80
2021/03/10 07:27:51;;;;;;;1999.90;999.90;;;5.20;99.90;;;;;;4864633;29;20167;-80
2021/03/10 07:30:33;;;;;;;1999.90;999.90;;;5.20;99.90;;;;;;4863985;29;20228;-79
2021/03/10 07:33:09;;;;;;;1999.90;999.90;;;5.20;99.90;;;;;;4866460;29;20678;-80
2021/03/10 07:36:02;;;;;;;1999.90;999.90;;;5.30;99.90;;;;;;4865324;29;20160;-80
2021/03/10 07:38:34;;;;;;;1999.90;999.90;;;5.30;99.90;;;;;;4865498;29;20220;-80
2021/03/10 07:41:28;;;;;;;1999.90;999.90;;;5.30;99.90;;;;;;4866023;29;20168;-79
2021/03/10 07:44:04;;;;;;;1999.90;999.90;;;5.40;99.90;;;;;;4865501;29;20183;-80
2021/03/10 07:50:11;;;;;;;1999.90;999.90;;;5.40;99.90;;;;;;4855519;29;20203;-80
2021/03/10 07:52:54;;;;;;;1999.90;999.90;;;5.50;99.90;;;;;;4865533;29;20658;-80
2021/03/10 07:55:22;;;;;;;1999.90;999.90;;;5.50;99.90;;;;;;4864717;29;20299;-80
2021/03/10 07:57:55;;;;;;;1999.90;999.90;;;5.50;99.90;;;;;;4865946;29;20171;-80
2021/03/10 08:00:51;;;;;;;1999.90;999.90;;;5.70;99.90;;;;;;4864686;29;20190;-80
2021/03/10 08:03:33;;;;;;;1999.90;999.90;;;5.70;99.90;;;;;;4865839;29;20195;-80
2021/03/10 08:06:19;;;;;;;1999.90;999.90;;;5.70;99.90;;;;;;4864901;29;20223;-80
2021/03/10 08:09:06;;;;;;;1999.90;999.90;;;5.80;99.90;;;;;;4865969;29;20682;-80
2021/03/10 08:11:37;;;;;;;1999.90;999.90;;;5.80;99.90;;;;;;4864973;29;20160;-80
2021/03/10 08:14:18;;;;;;;1999.90;999.90;;;5.70;99.90;;;;;;4864927;29;20707;-80
2021/03/10 08:24:21;;;;;;;1999.90;999.90;;;5.80;99.90;;;;;;4882794;29;20232;-80
2021/03/10 08:27:35;;;;;;;1999.90;999.90;;;5.80;99.90;;;;;;4883291;29;20550;-80
2021/03/10 08:30:18;;;;;;;1999.90;999.90;;;5.80;99.90;;;;;;4826827;29;20649;-80
2021/03/10 08:33:12;;;;;;;1999.90;999.90;;;5.80;99.90;;;;;;4882549;29;20218;-80
2021/03/10 08:35:55;;;;;;;1999.90;999.90;;;5.90;99.90;;;;;;4887506;29;20643;-81
2021/03/10 08:38:29;;;;;;;1999.90;999.90;;;5.90;99.90;;;;;;4888258;29;20174;-81
2021/03/10 08:41:13;;;;;;;1999.90;999.90;;;5.90;99.90;;;;;;4887016;29;20151;-80
2021/03/10 08:43:59;;;;;;;1999.90;999.90;;;6.10;99.90;;;;;;4885250;29;20194;-80
2021/03/10 08:46:56;;;;;;;1999.90;999.90;;;6.20;99.90;;;;;;4887287;29;20249;-80
2021/03/10 08:53:32;;;;;;;1999.90;999.90;;;6.30;99.90;;;;;;4811475;29;20209;-81
2021/03/10 08:56:48;;;;;;;1999.90;999.90;;;6.40;99.90;;;;;;4887132;29;20185;-80
2021/03/10 08:59:35;;;;;;;1999.90;999.90;;;6.40;99.90;;;;;;4883048;29;20673;-80
2021/03/10 09:02:04;;;;;;;1999.90;999.90;;;6.50;99.90;;;;;;4885215;29;20187;-80
2021/03/10 09:04:35;;;;;;;1999.90;999.90;;;6.60;99.90;;;;;;4887935;29;20201;-81
2021/03/10 09:07:06;;;;;;;1999.90;999.90;;;6.60;99.90;;;;;;4886292;29;20209;-81
2021/03/10 09:09:46;;;;;;;1999.90;999.90;;;6.70;99.90;;;;;;4884308;29;20250;-81
2021/03/10 09:12:20;;;;;;;1999.90;999.90;;;6.80;99.90;;;;;;4887097;29;20547;-80
2021/03/10 09:14:47;;;;;;;1999.90;999.90;;;7.00;99.90;;;;;;4885949;29;20201;-80
2021/03/10 09:17:35;;;;;;;1999.90;999.90;;;7.10;99.90;;;;;;4886718;29;20262;-80
2021/03/10 09:20:28;;;;;;;1999.90;999.90;;;7.10;99.90;;;;;;4887109;29;20519;-80
2021/03/10 09:22:55;;;;;;;1999.90;999.90;;;7.20;99.90;;;;;;4861766;29;20773;-81
2021/03/10 09:25:27;;;;;;;1999.90;999.90;;;7.20;99.90;;;;;;4887301;29;20174;-80
2021/03/10 09:28:16;;;;;;;1999.90;999.90;;;7.40;99.90;;;;;;4885952;29;20178;-80
2021/03/10 09:30:46;;;;;;;1999.90;999.90;;;7.40;99.90;;;;;;4887085;29;20163;-80
2021/03/10 09:33:24;;;;;;;1999.90;999.90;;;7.50;99.90;;;;;;4884626;29;20206;-80
2021/03/10 09:35:53;;;;;;;1999.90;999.90;;;7.50;99.90;;;;;;4885633;29;20248;-80
2021/03/10 09:38:20;;;;;;;1999.90;999.90;;;7.50;99.90;;;;;;4885712;29;20177;-80
2021/03/10 09:40:55;;;;;;;1999.90;999.90;;;7.60;99.90;;;;;;4886638;29;20163;-81
2021/03/10 09:43:22;;;;;;;1999.90;999.90;;;7.70;99.90;;;;;;4884504;29;20674;-81
2021/03/10 09:45:57;;;;;;;1999.90;999.90;;;7.80;99.90;;;;;;4884725;29;20219;-80
2021/03/10 09:48:38;;;;;;;1999.90;999.90;;;7.80;99.90;;;;;;4885462;29;20147;-80
2021/03/10 09:51:12;;;;;;;1999.90;999.90;;;7.90;99.90;;;;;;4884683;29;20183;-80
2021/03/10 09:53:49;;;;;;;1999.90;999.90;;;7.90;99.90;;;;;;4885608;29;20242;-80
2021/03/10 09:56:33;;;;;;;1999.90;999.90;;;8.00;99.90;;;;;;4884571;29;20167;-80
2021/03/10 09:59:06;;;;;;;1999.90;999.90;;;8.10;99.90;;;;;;4884652;29;20167;-80
2021/03/10 10:02:00;;;;;;;1999.90;999.90;;;8.20;99.90;;;;;;4884336;29;20170;-80
2021/03/10 10:04:29;;;;;;;1999.90;999.90;;;8.30;99.90;;;;;;4886978;29;20197;-80
2021/03/10 10:06:56;;;;;;;1999.90;999.90;;;8.40;99.90;;;;;;4885992;29;20167;-80
2021/03/10 10:09:28;;;;;;;1999.90;999.90;;;8.40;99.90;;;;;;4884396;29;20643;-80
2021/03/10 10:11:53;;;;;;;1999.90;999.90;;;8.50;99.90;;;;;;4885009;29;20210;-80
2021/03/10 10:14:19;;;;;;;1999.90;999.90;;;8.60;99.90;;;;;;4885064;29;20187;-80
2021/03/10 10:16:51;;;;;;;1999.90;999.90;;;8.80;99.90;;;;;;4883447;29;20199;-80
2021/03/10 10:19:19;;;;;;;1999.90;999.90;;;8.90;99.90;;;;;;4885011;29;20447;-80
2021/03/10 10:21:51;;;;;;;1999.90;999.90;;;8.90;99.90;;;;;;4884867;29;20248;-80
2021/03/10 10:24:39;;;;;;;1999.90;999.90;;;9.10;99.90;;;;;;4885331;29;20214;-80
2021/03/10 10:27:04;;;;;;;1999.90;999.90;;;9.00;99.90;;;;;;4885256;29;20181;-80
2021/03/10 10:29:30;;;;;;;1999.90;999.90;;;9.20;99.90;;;;;;4883617;29;20181;-80
2021/03/10 10:32:01;;;;;;;1999.90;999.90;;;9.30;99.90;;;;;;4884403;29;20277;-80
2021/03/10 10:34:27;;;;;;;1999.90;999.90;;;9.40;99.90;;;;;;4883593;29;20693;-80
2021/03/10 10:36:53;;;;;;;1999.90;999.90;;;9.80;99.90;;;;;;4884798;29;20167;-80
2021/03/10 10:39:21;;;;;;;1999.90;999.90;;;10.00;99.90;;;;;;4884718;29;20169;-80
2021/03/10 10:41:50;;;;;;;1999.90;999.90;;;10.10;99.90;;;;;;4883483;29;20415;-80
2021/03/10 10:44:18;;;;;;;1999.90;999.90;;;10.20;99.90;;;;;;4883238;29;20229;-80
2021/03/10 10:46:44;;;;;;;1999.90;999.90;;;10.30;99.90;;;;;;4884001;29;20627;-80
2021/03/10 10:49:10;;;;;;;1999.90;999.90;;;10.20;99.90;;;;;;4884148;29;20178;-81
2021/03/10 10:51:46;;;;;;;1999.90;999.90;;;10.20;99.90;;;;;;4884206;29;20638;-80
2021/03/10 10:54:12;;;;;;;1999.90;999.90;;;10.20;99.90;;;;;;4884262;29;20193;-81
2021/03/10 10:56:40;;;;;;;1999.90;999.90;;;10.30;99.90;;;;;;4884468;29;20170;-80
2021/03/10 10:59:06;;;;;;;1999.90;999.90;;;10.30;99.90;;;;;;4881717;29;20415;-80
2021/03/10 11:01:32;;;;;;;1999.90;999.90;;;10.20;99.90;;;;;;4884499;29;20163;-80
2021/03/10 11:04:05;;;;;;;1999.90;999.90;;;10.30;99.90;;;;;;4883958;29;20209;-80
2021/03/10 11:06:31;;;;;;;1999.90;999.90;;;10.40;99.90;;;;;;4884370;29;20162;-80
2021/03/10 11:08:56;;;;;;;1999.90;999.90;;;10.80;99.90;;;;;;4883302;29;20171;-80
2021/03/10 11:11:28;;;;;;;1999.90;999.90;;;10.80;99.90;;;;;;4884456;29;20170;-80
2021/03/10 11:13:54;;;;;;;1999.90;999.90;;;11.00;99.90;;;;;;4883987;29;20277;-80
2021/03/10 11:16:25;;;;;;;1999.90;999.90;;;11.10;99.90;;;;;;4883752;29;20257;-80
2021/03/10 11:18:54;;;;;;;1999.90;999.90;;;11.10;99.90;;;;;;4884344;29;20160;-80
2021/03/10 11:21:27;;;;;;;1999.90;999.90;;;11.20;99.90;;;;;;4882873;29;20178;-80
2021/03/10 11:23:58;;;;;;;1999.90;999.90;;;11.20;99.90;;;;;;4883941;29;20758;-80
2021/03/10 11:26:24;;;;;;;1999.90;999.90;;;11.40;99.90;;;;;;4883444;29;20523;-80
2021/03/10 11:28:49;;;;;;;1999.90;999.90;;;11.60;99.90;;;;;;4882463;29;20177;-81
2021/03/10 11:31:15;;;;;;;1999.90;999.90;;;11.90;99.90;;;;;;4883259;29;20171;-80
2021/03/10 11:33:46;;;;;;;1999.90;999.90;;;11.90;99.90;;;;;;4883389;29;20205;-80
2021/03/10 11:36:12;;;;;;;1999.90;999.90;;;11.60;95.90;;;;;;4883650;29;20895;-80
2021/03/10 11:38:42;;;;;;;1999.90;999.90;;;11.30;99.60;;;;;;4881707;29;20188;-80
2021/03/10 11:41:10;;;;;;;1999.90;999.90;;;11.50;99.90;;;;;;4883701;29;20190;-80
2021/03/10 11:43:36;;;;;;;1999.90;999.90;;;11.70;99.90;;;;;;4883512;29;20222;-80
2021/03/10 11:46:02;;;;;;;1999.90;999.90;;;11.90;99.90;;;;;;4882889;29;20181;-81
2021/03/10 11:48:33;;;;;;;1999.90;999.90;;;11.90;97.80;;;;;;4883494;29;20923;-80
2021/03/10 11:51:08;;;;;;;1999.90;999.90;;;11.70;71.20;;;;;;4882413;29;20175;-80
2021/03/10 11:53:36;;;;;;;1999.90;999.90;;;11.80;97.20;;;;;;4883333;29;20633;-80
2021/03/10 11:56:02;;;;;;;1999.90;999.90;;;11.90;95.70;;;;;;4882284;29;20166;-81
2021/03/10 11:58:31;;;;;;;1999.90;999.90;;;11.90;95.60;;;;;;4883581;29;20177;-80
2021/03/10 12:00:56;;;;;;;1999.90;999.90;;;12.00;90.10;;;;;;4883313;29;20306;-80
2021/03/10 12:03:22;;;;;;;1999.90;999.90;;;12.30;98.00;;;;;;4883284;29;20215;-80
2021/03/10 12:05:50;;;;;;;1999.90;999.90;;;12.30;97.10;;;;;;4881908;29;20212;-80
2021/03/10 12:08:27;;;;;;;1999.90;999.90;;;12.60;96.90;;;;;;4881892;29;20546;-80
2021/03/10 12:10:59;;;;;;;1999.90;999.90;;;12.80;96.90;;;;;;4885116;29;20174;-80
2021/03/10 12:13:42;;;;;;;1999.90;999.90;;;13.00;96.40;;;;;;4886496;29;20198;-80
2021/03/10 12:16:11;;;;;;;1999.90;999.90;;;13.00;93.50;;;;;;4885766;29;20197;-80
2021/03/10 12:18:51;;;;;;;1999.90;999.90;;;12.80;69.80;;;;;;4885276;29;20173;-80
2021/03/10 12:21:46;;;;;;;1999.90;999.90;;;12.50;74.50;;;;;;4886699;29;20531;-80
2021/03/10 12:24:16;;;;;;;1999.90;999.90;;;12.50;86.60;;;;;;4885778;29;20214;-80
2021/03/10 12:27:06;;;;;;;1999.90;999.90;;;12.70;92.30;;;;;;4886361;29;20618;-80
2021/03/10 12:29:46;;;;;;;1999.90;999.90;;;13.00;90.70;;;;;;4885095;29;20170;-80
2021/03/10 12:32:30;;;;;;;1999.90;999.90;;;12.50;59.10;;;;;;4886715;29;20194;-80
2021/03/10 12:35:02;;;;;;;1999.90;999.90;;;12.30;85.00;;;;;;4886712;29;20206;-80
2021/03/10 12:37:31;;;;;;;1999.90;999.90;;;12.20;89.20;;;;;;4885139;29;20223;-80
2021/03/10 12:40:02;;;;;;;1999.90;999.90;;;12.20;79.90;;;;;;4886083;29;20245;-80